Time;durP1;ratioP1;P1;durP2;ratioP2;P2;SDS_P1;SDS_P2;PMS_P1;PMS_P2;Temp;Humidity;BMP_temperature;BMP_pressure;BME280_temperature;BME280_humidity;BME280_pressure;Samples;Min_cycle;Max_cycle;Signal;HPM_P1;HPM_P2
2022/05/03 00:02:17;;;;;;;9.25;7.53;;;5.60;99.90;;;;;;5041730;28;20512;-78
2022/05/03 00:05:04;;;;;;;9.32;7.43;;;5.60;99.90;;;;;;5042429;28;20046;-78
2022/05/03 00:07:44;;;;;;;9.75;7.40;;;5.60;99.90;;;;;;5043045;28;20046;-77
2022/05/03 00:10:19;;;;;;;10.60;7.13;;;5.50;99.90;;;;;;5025185;28;20108;-78
2022/05/03 00:12:52;;;;;;;11.20;8.05;;;5.60;99.90;;;;;;5041826;28;20045;-78
2022/05/03 00:15:20;;;;;;;11.05;8.80;;;5.60;99.90;;;;;;5041826;28;20052;-77
2022/05/03 00:17:45;;;;;;;10.70;7.85;;;5.60;99.90;;;;;;5024536;28;20141;-78
2022/05/03 00:20:11;;;;;;;10.98;6.80;;;5.60;99.90;;;;;;5024991;28;20132;-77
2022/05/03 00:22:40;;;;;;;7.20;5.90;;;5.60;99.90;;;;;;5025359;28;20080;-78
2022/05/03 00:25:06;;;;;;;6.70;5.13;;;5.60;99.90;;;;;;5024432;28;20042;-78
2022/05/03 00:27:34;;;;;;;10.30;6.97;;;5.60;99.90;;;;;;5042158;28;20099;-78
2022/05/03 00:29:59;;;;;;;9.38;7.13;;;5.60;99.90;;;;;;5024305;28;20056;-78
2022/05/03 00:32:26;;;;;;;9.55;6.25;;;5.50;99.90;;;;;;5024703;28;20045;-78
2022/05/03 00:34:53;;;;;;;8.18;6.18;;;5.60;99.90;;;;;;5041809;28;20540;-78
2022/05/03 00:37:19;;;;;;;11.93;7.28;;;5.60;99.90;;;;;;5024891;28;20050;-78
2022/05/03 00:39:45;;;;;;;5.63;3.88;;;5.60;99.90;;;;;;5041818;28;20042;-78
2022/05/03 00:42:19;;;;;;;9.20;7.05;;;5.50;99.90;;;;;;5042149;28;20038;-78
2022/05/03 00:45:02;;;;;;;9.00;6.22;;;5.60;99.90;;;;;;5006760;28;20049;-77
2022/05/03 00:47:41;;;;;;;6.18;4.18;;;5.60;99.90;;;;;;5041182;28;20046;-78
2022/05/03 00:50:11;;;;;;;8.43;5.78;;;5.50;99.90;;;;;;5024523;28;20401;-77
2022/05/03 00:52:47;;;;;;;12.23;6.95;;;5.40;99.90;;;;;;5041805;28;20378;-78
2022/05/03 00:55:28;;;;;;;8.60;4.10;;;5.40;99.90;;;;;;5041702;28;20128;-78
2022/05/03 00:58:04;;;;;;;6.45;4.68;;;5.30;99.90;;;;;;5041281;28;20140;-78
2022/05/03 01:00:31;;;;;;;7.60;4.50;;;5.30;99.90;;;;;;5039876;28;20121;-78
2022/05/03 01:03:15;;;;;;;4.22;2.97;;;5.20;99.90;;;;;;5041584;28;20042;-77
2022/05/03 01:05:50;;;;;;;4.75;3.70;;;5.20;99.90;;;;;;5041222;28;20060;-77
2022/05/03 01:08:31;;;;;;;8.10;4.10;;;5.10;99.90;;;;;;5042148;28;20060;-78
2022/05/03 01:11:20;;;;;;;5.38;3.85;;;5.00;99.90;;;;;;5041092;28;20050;-77
2022/05/03 01:13:55;;;;;;;5.40;4.10;;;5.00;99.90;;;;;;5007831;28;20476;-78
2022/05/03 01:16:34;;;;;;;5.55;3.63;;;5.00;99.90;;;;;;5040760;28;20046;-77
2022/05/03 01:19:06;;;;;;;7.03;4.47;;;4.80;99.90;;;;;;5008122;28;20175;-78
2022/05/03 01:21:50;;;;;;;54.28;5.75;;;4.80;99.90;;;;;;5040786;28;20050;-77
2022/05/03 01:24:16;;;;;;;8.15;5.63;;;4.70;99.90;;;;;;5041571;28;20050;-77
2022/05/03 01:27:01;;;;;;;7.70;6.20;;;4.70;99.90;;;;;;5041034;28;20560;-77
2022/05/03 01:29:32;;;;;;;9.75;7.25;;;4.70;99.90;;;;;;5024575;28;20375;-77
2022/05/03 01:32:01;;;;;;;14.13;9.55;;;4.70;99.90;;;;;;5038946;28;20056;-77
2022/05/03 01:34:28;;;;;;;11.13;9.00;;;4.80;99.90;;;;;;5007341;28;20494;-77
2022/05/03 01:37:23;;;;;;;10.27;8.30;;;4.80;99.90;;;;;;5040186;28;20128;-77
2022/05/03 01:39:48;;;;;;;13.70;9.90;;;4.80;99.90;;;;;;5023868;28;20400;-77
2022/05/03 01:42:34;;;;;;;8.98;5.75;;;4.90;99.90;;;;;;5040389;28;20137;-77
2022/05/03 01:45:07;;;;;;;9.02;3.90;;;4.90;99.90;;;;;;5006502;28;20433;-77
2022/05/03 01:47:59;;;;;;;8.15;5.85;;;4.80;99.90;;;;;;5024105;28;20057;-77
2022/05/03 01:50:38;;;;;;;11.23;6.57;;;4.80;99.90;;;;;;5040436;28;20056;-77
2022/05/03 01:53:08;;;;;;;8.88;6.90;;;4.80;99.90;;;;;;5023495;28;20136;-78
2022/05/03 01:56:04;;;;;;;7.32;5.70;;;4.80;99.90;;;;;;5023000;28;20100;-78
2022/05/03 01:58:51;;;;;;;9.27;6.47;;;4.80;99.90;;;;;;5024103;28;20563;-77
2022/05/03 02:01:40;;;;;;;7.70;6.00;;;4.70;99.90;;;;;;5039427;28;20041;-77
2022/05/03 02:04:06;;;;;;;8.23;5.80;;;4.70;99.90;;;;;;5040106;28;20425;-77
2022/05/03 02:06:50;;;;;;;7.07;5.35;;;5.10;99.90;;;;;;5040361;28;20129;-77
2022/05/03 02:09:25;;;;;;;7.50;5.85;;;4.70;99.90;;;;;;5040012;28;20056;-78
2022/05/03 02:12:11;;;;;;;8.05;5.40;;;4.70;99.90;;;;;;5040179;28;20445;-77
2022/05/03 02:14:44;;;;;;;9.45;7.13;;;4.70;99.90;;;;;;5040026;28;20049;-77
2022/05/03 02:17:19;;;;;;;10.43;8.43;;;4.70;99.90;;;;;;5006116;28;20100;-77
2022/05/03 02:19:58;;;;;;;8.25;6.85;;;4.70;99.90;;;;;;5023216;28;20046;-77
2022/05/03 02:22:30;;;;;;;10.95;8.10;;;4.70;99.90;;;;;;5039983;28;20133;-77
2022/05/03 02:25:15;;;;;;;8.48;7.07;;;4.70;99.90;;;;;;5022847;28;20053;-77
2022/05/03 02:27:53;;;;;;;8.20;5.93;;;4.70;99.90;;;;;;5040358;28;20136;-78
2022/05/03 02:30:19;;;;;;;7.43;6.00;;;4.70;99.90;;;;;;5021736;28;20062;-78
2022/05/03 02:32:56;;;;;;;7.63;5.28;;;4.70;99.90;;;;;;5022697;28;20049;-78
2022/05/03 02:35:23;;;;;;;9.93;7.22;;;4.70;99.90;;;;;;5039751;28;20088;-77
2022/05/03 02:37:55;;;;;;;11.52;7.93;;;4.70;99.90;;;;;;5039567;28;20092;-78
2022/05/03 02:40:25;;;;;;;12.10;8.77;;;4.80;99.90;;;;;;5039884;28;20059;-77
2022/05/03 02:42:51;;;;;;;14.30;10.55;;;4.90;99.90;;;;;;5039371;28;20841;-78
2022/05/03 02:45:18;;;;;;;18.05;12.20;;;5.00;99.90;;;;;;5005354;28;20088;-78
2022/05/03 02:48:07;;;;;;;15.00;11.68;;;5.10;99.90;;;;;;5007065;28;20037;-78
2022/05/03 02:50:58;;;;;;;13.50;11.18;;;5.30;99.90;;;;;;5006669;28;20046;-78
2022/05/03 02:53:50;;;;;;;14.45;11.15;;;5.40;99.90;;;;;;5039702;28;20049;-77
2022/05/03 02:56:21;;;;;;;16.75;11.50;;;5.50;99.90;;;;;;5006849;28;20057;-78
2022/05/03 02:59:17;;;;;;;15.70;12.82;;;5.70;99.90;;;;;;4989451;28;20050;-77
2022/05/03 03:02:13;;;;;;;17.13;13.38;;;5.80;99.90;;;;;;5005981;28;20045;-77
2022/05/03 03:04:54;;;;;;;15.63;12.55;;;5.90;99.90;;;;;;5006310;28;20042;-77
2022/05/03 03:07:20;;;;;;;15.05;12.13;;;6.00;99.90;;;;;;5006278;28;20089;-77
2022/05/03 03:09:55;;;;;;;17.48;13.13;;;6.10;99.90;;;;;;5005998;28;20046;-77
2022/05/03 03:12:22;;;;;;;17.73;14.25;;;6.10;99.90;;;;;;5005753;28;20053;-78
2022/05/03 03:14:50;;;;;;;16.60;13.93;;;6.20;99.90;;;;;;5005968;28;20073;-77
2022/05/03 03:17:25;;;;;;;14.63;12.60;;;6.30;99.90;;;;;;5005787;28;20093;-77
2022/05/03 03:19:59;;;;;;;16.85;14.43;;;6.30;99.90;;;;;;4989001;28;20496;-78
2022/05/03 03:22:34;;;;;;;18.02;13.98;;;6.40;99.90;;;;;;5006775;28;20478;-78
2022/05/03 03:25:02;;;;;;;20.75;15.63;;;6.40;99.90;;;;;;5005987;28;20521;-77
2022/05/03 03:27:31;;;;;;;24.58;18.23;;;6.50;99.90;;;;;;5006278;28;20396;-77
2022/05/03 03:29:58;;;;;;;23.85;18.55;;;6.50;99.90;;;;;;4988673;28;20061;-77
2022/05/03 03:32:25;;;;;;;23.33;18.65;;;6.60;99.90;;;;;;5039558;28;20050;-78
2022/05/03 03:34:57;;;;;;;18.65;15.20;;;6.60;99.90;;;;;;5004910;28;20061;-77
2022/05/03 03:37:24;;;;;;;20.02;15.05;;;6.70;99.90;;;;;;4990305;28;20064;-78
2022/05/03 03:39:50;;;;;;;20.05;14.73;;;6.70;99.90;;;;;;5005455;28;20041;-77
2022/05/03 03:42:16;;;;;;;17.55;14.15;;;6.60;99.90;;;;;;5005938;28;20068;-77
2022/05/03 03:44:42;;;;;;;19.77;15.23;;;6.70;99.90;;;;;;5006167;28;20125;-77
2022/05/03 03:47:09;;;;;;;21.52;15.57;;;6.70;99.90;;;;;;5005750;28;20057;-77
2022/05/03 03:49:35;;;;;;;19.17;14.82;;;6.70;99.90;;;;;;5006101;28;20092;-77
2022/05/03 03:52:02;;;;;;;20.70;16.02;;;6.80;99.90;;;;;;5004839;28;20049;-77
2022/05/03 03:54:28;;;;;;;22.77;17.40;;;6.80;99.90;;;;;;5007297;28;20116;-77
2022/05/03 03:56:55;;;;;;;22.77;17.90;;;6.90;99.90;;;;;;5008794;28;20062;-77
2022/05/03 03:59:21;;;;;;;27.17;19.52;;;6.90;99.90;;;;;;5009860;28;20050;-78
2022/05/03 04:01:49;;;;;;;24.38;19.10;;;7.00;99.90;;;;;;4991468;28;20052;-78
2022/05/03 04:04:16;;;;;;;28.67;19.73;;;7.10;99.90;;;;;;5010167;28;20108;-78
2022/05/03 04:06:42;;;;;;;26.13;19.15;;;7.10;99.90;;;;;;5009925;28;20085;-78
2022/05/03 04:09:08;;;;;;;26.67;20.00;;;7.10;99.90;;;;;;5007582;28;20077;-77
2022/05/03 04:11:43;;;;;;;24.70;19.30;;;7.20;99.90;;;;;;4993309;28;20049;-77
2022/05/03 04:14:10;;;;;;;24.00;19.08;;;7.20;99.90;;;;;;5009379;28;20056;-78
2022/05/03 04:16:35;;;;;;;24.77;20.05;;;7.20;99.90;;;;;;5008548;28;20050;-77
2022/05/03 04:19:01;;;;;;;27.38;21.40;;;7.20;99.90;;;;;;5008906;28;20609;-77
2022/05/03 04:21:27;;;;;;;27.58;21.02;;;7.30;99.90;;;;;;4993102;28;20559;-77
2022/05/03 04:23:52;;;;;;;26.30;19.13;;;7.30;99.90;;;;;;5008015;28;20081;-78
2022/05/03 04:26:18;;;;;;;25.77;21.73;;;7.30;99.90;;;;;;4992758;28;20046;-77
2022/05/03 04:28:44;;;;;;;25.60;21.13;;;7.40;99.90;;;;;;5009620;28;20077;-77
2022/05/03 04:31:10;;;;;;;34.83;23.60;;;7.40;99.90;;;;;;5072925;28;20056;-78
2022/05/03 04:33:35;;;;;;;26.90;21.60;;;7.50;99.90;;;;;;5048502;28;20554;-77
2022/05/03 04:36:01;;;;;;;28.92;23.50;;;7.50;99.90;;;;;;5064405;28;20135;-77
2022/05/03 04:38:27;;;;;;;35.47;25.20;;;7.60;99.90;;;;;;5048182;28;20049;-77
2022/05/03 04:41:00;;;;;;;36.38;25.20;;;7.60;99.90;;;;;;5064553;28;20056;-77
2022/05/03 04:43:26;;;;;;;31.27;23.35;;;7.70;99.90;;;;;;5045641;28;20083;-77
2022/05/03 04:45:52;;;;;;;34.13;24.45;;;7.70;99.90;;;;;;5007597;28;20148;-77
2022/05/03 04:48:18;;;;;;;35.08;24.60;;;7.80;99.90;;;;;;5008432;28;20541;-77
2022/05/03 04:50:44;;;;;;;38.42;25.70;;;7.80;99.90;;;;;;5007946;28;20053;-78
2022/05/03 04:53:10;;;;;;;39.08;27.05;;;7.80;99.90;;;;;;5007921;28;20461;-78
2022/05/03 04:55:39;;;;;;;38.22;26.83;;;7.90;99.90;;;;;;5008575;28;20129;-78
2022/05/03 04:58:05;;;;;;;36.47;26.25;;;7.90;99.90;;;;;;5007470;28;20045;-78
2022/05/03 05:00:31;;;;;;;35.97;25.98;;;8.00;99.90;;;;;;5007842;28;20604;-78
2022/05/03 05:02:57;;;;;;;42.95;28.88;;;8.00;99.90;;;;;;5008279;28;20056;-78
2022/05/03 05:05:22;;;;;;;38.65;27.13;;;8.00;99.90;;;;;;5007032;28;20049;-79
2022/05/03 05:07:48;;;;;;;39.25;27.67;;;8.20;99.90;;;;;;5008110;28;20057;-79
2022/05/03 05:10:24;;;;;;;40.15;27.58;;;8.10;99.90;;;;;;5008075;28;20497;-78
2022/05/03 05:12:50;;;;;;;37.75;27.20;;;8.10;99.90;;;;;;5007147;28;20136;-78
2022/05/03 05:15:16;;;;;;;40.42;28.58;;;8.20;99.90;;;;;;5006944;28;20038;-78
2022/05/03 05:17:42;;;;;;;44.05;30.00;;;8.20;99.90;;;;;;5008235;28;20049;-78
2022/05/03 05:20:08;;;;;;;37.97;27.05;;;8.30;99.90;;;;;;5007085;28;20037;-78
2022/05/03 05:22:34;;;;;;;41.30;27.40;;;8.30;99.90;;;;;;5008022;28;20080;-78
2022/05/03 05:24:59;;;;;;;39.75;28.08;;;8.30;99.90;;;;;;5007467;28;20046;-78
2022/05/03 05:27:25;;;;;;;42.08;27.60;;;8.30;99.90;;;;;;5007263;28;20100;-78
2022/05/03 05:29:51;;;;;;;38.83;26.80;;;8.50;99.90;;;;;;5006624;28;20066;-78
2022/05/03 05:32:16;;;;;;;42.05;28.95;;;8.40;99.90;;;;;;5007284;28;20107;-78
2022/05/03 05:34:42;;;;;;;53.20;30.90;;;8.50;99.90;;;;;;5006740;28;20088;-78
2022/05/03 05:37:08;;;;;;;48.17;32.63;;;8.50;99.90;;;;;;5006796;28;20466;-78
2022/05/03 05:39:33;;;;;;;51.95;32.38;;;8.40;99.90;;;;;;5007461;28;20061;-78
2022/05/03 05:42:01;;;;;;;47.13;32.00;;;8.60;99.90;;;;;;5006749;28;20045;-78
2022/05/03 05:44:28;;;;;;;54.22;34.95;;;8.60;99.90;;;;;;4990856;28;20042;-78
2022/05/03 05:46:54;;;;;;;55.95;33.83;;;8.50;99.90;;;;;;5005958;28;20546;-78
2022/05/03 05:49:20;;;;;;;52.58;32.95;;;8.60;99.90;;;;;;5007774;28;20061;-78
2022/05/03 05:51:46;;;;;;;57.55;35.13;;;8.60;99.90;;;;;;5008462;28;20046;-78
2022/05/03 05:54:12;;;;;;;56.45;34.13;;;8.60;99.90;;;;;;5022711;28;20037;-78
2022/05/03 05:56:40;;;;;;;57.05;36.42;;;8.70;99.90;;;;;;5020280;28;20038;-78
2022/05/03 05:59:05;;;;;;;61.72;36.78;;;8.70;99.90;;;;;;5010620;28;20064;-77
2022/05/03 06:01:37;;;;;;;61.67;37.72;;;9.00;99.90;;;;;;5008182;28;20485;-78
2022/05/03 06:04:03;;;;;;;67.65;36.92;;;8.70;99.90;;;;;;5059663;28;20084;-78
2022/05/03 06:06:29;;;;;;;58.95;35.03;;;8.80;99.90;;;;;;5025734;28;20432;-78
2022/05/03 06:08:55;;;;;;;56.92;32.92;;;8.90;99.90;;;;;;5025921;28;20087;-80
2022/05/03 06:11:20;;;;;;;48.47;24.52;;;8.90;99.90;;;;;;5009283;28;20229;-80
2022/05/03 06:13:47;;;;;;;43.65;24.15;;;9.00;99.90;;;;;;5024792;28;20038;-80
2022/05/03 06:16:13;;;;;;;49.17;23.48;;;9.00;99.90;;;;;;5057448;28;20132;-80
2022/05/03 06:18:39;;;;;;;50.22;25.23;;;9.00;99.90;;;;;;5023964;28;20063;-80
2022/05/03 06:21:07;;;;;;;42.53;20.73;;;9.00;99.90;;;;;;5025884;28;20052;-80
2022/05/03 06:23:33;;;;;;;43.00;16.02;;;9.00;99.90;;;;;;5059362;28;20124;-80
2022/05/03 06:25:59;;;;;;;27.92;10.77;;;9.30;99.90;;;;;;5026008;28;20099;-80
2022/05/03 06:28:25;;;;;;;20.77;7.43;;;9.00;99.90;;;;;;5060346;28;20037;-79
2022/05/03 06:30:50;;;;;;;22.38;6.53;;;9.00;99.90;;;;;;5023861;28;20513;-80
2022/05/03 06:33:16;;;;;;;23.00;6.90;;;9.00;99.90;;;;;;5026009;28;20049;-79
2022/05/03 06:35:42;;;;;;;24.08;6.07;;;9.00;99.90;;;;;;5025695;28;20041;-79
2022/05/03 06:38:07;;;;;;;27.70;6.45;;;9.00;99.90;;;;;;5024818;28;20052;-79
2022/05/03 06:40:33;;;;;;;21.08;5.57;;;9.00;99.90;;;;;;5027688;28;20570;-79
2022/05/03 06:42:59;;;;;;;17.35;5.40;;;9.00;99.90;;;;;;5025372;28;20034;-80
2022/05/03 06:45:24;;;;;;;18.25;5.72;;;9.00;99.90;;;;;;5024193;28;20052;-81
2022/05/03 06:47:50;;;;;;;20.40;6.10;;;8.90;99.90;;;;;;5025645;28;20516;-81
2022/05/03 06:50:17;;;;;;;26.35;6.72;;;8.90;99.90;;;;;;5025043;28;20103;-77
2022/05/03 06:52:43;;;;;;;17.77;5.68;;;8.90;99.90;;;;;;5027516;28;20041;-83
2022/05/03 06:55:10;;;;;;;23.95;6.30;;;8.90;99.90;;;;;;5025214;28;20041;-83
2022/05/03 06:57:36;;;;;;;27.75;6.28;;;8.90;99.90;;;;;;5025789;28;20049;-82
2022/05/03 07:00:05;;;;;;;19.90;5.93;;;9.20;99.90;;;;;;5025106;28;20048;-82
2022/05/03 07:02:32;;;;;;;18.83;5.72;;;8.90;99.90;;;;;;5039343;28;20057;-78
2022/05/03 07:05:00;;;;;;;20.52;6.00;;;8.90;99.90;;;;;;5020817;28;20046;-83
2022/05/03 07:07:27;;;;;;;26.50;6.82;;;8.90;99.90;;;;;;5024957;28;20045;-82
2022/05/03 07:09:52;;;;;;;21.83;6.15;;;8.90;99.90;;;;;;5024458;28;20199;-82
2022/05/03 07:12:18;;;;;;;28.75;7.75;;;9.50;99.90;;;;;;5024362;28;20069;-82
2022/05/03 07:14:44;;;;;;;27.13;5.88;;;8.90;99.90;;;;;;5008115;28;20048;-81
2022/05/03 07:22:45;;;;;;;36.17;7.28;;;9.00;99.90;;;;;;5051043;28;20057;-82
2022/05/03 07:22:45;;;;;;;33.60;7.72;;;9.50;99.90;;;;;;5025648;28;20049;-82
2022/05/03 07:25:11;;;;;;;26.33;6.82;;;9.00;99.90;;;;;;5055787;28;20053;-82
2022/05/03 07:27:37;;;;;;;36.22;8.35;;;9.10;99.90;;;;;;5026557;28;20045;-81
2022/05/03 07:30:04;;;;;;;35.45;8.27;;;9.20;99.90;;;;;;5026923;28;20115;-81
2022/05/03 07:32:29;;;;;;;30.17;6.22;;;9.20;99.90;;;;;;5028182;28;20420;-80
2022/05/03 07:34:55;;;;;;;21.65;6.38;;;9.30;99.90;;;;;;5028227;28;20046;-81
2022/05/03 07:37:20;;;;;;;30.08;5.63;;;9.30;99.90;;;;;;5013396;28;20057;-81
2022/05/03 07:39:46;;;;;;;29.88;6.90;;;9.40;99.90;;;;;;5026361;28;20049;-81
2022/05/03 07:42:12;;;;;;;29.35;6.28;;;9.40;99.90;;;;;;5029929;28;20056;-81
2022/05/03 07:44:37;;;;;;;31.35;5.47;;;9.40;99.90;;;;;;5028068;28;20042;-81
2022/05/03 07:47:03;;;;;;;24.27;4.72;;;9.80;99.90;;;;;;5026625;28;20088;-81
2022/05/03 07:49:29;;;;;;;20.92;5.47;;;9.50;99.90;;;;;;5012249;28;20124;-81
2022/05/03 07:51:55;;;;;;;24.95;5.05;;;9.60;99.90;;;;;;5027362;28;20041;-81
2022/05/03 07:54:20;;;;;;;27.00;6.00;;;9.60;99.90;;;;;;5028948;28;20057;-80
2022/05/03 07:56:46;;;;;;;18.13;3.90;;;9.70;99.90;;;;;;5026864;28;20136;-80
2022/05/03 07:59:12;;;;;;;25.85;4.63;;;9.80;99.90;;;;;;5028770;28;20042;-81
2022/05/03 08:01:41;;;;;;;24.55;4.20;;;9.90;99.90;;;;;;5027628;28;20141;-81
2022/05/03 08:04:06;;;;;;;29.38;5.40;;;10.00;99.90;;;;;;5028003;28;20053;-80
2022/05/03 08:06:32;;;;;;;26.73;4.90;;;9.90;99.90;;;;;;5042767;28;20053;-80
2022/05/03 08:08:58;;;;;;;18.63;4.53;;;10.00;99.90;;;;;;5041266;28;20046;-80
2022/05/03 08:11:24;;;;;;;29.20;4.75;;;10.40;99.90;;;;;;5042214;28;20054;-80
2022/05/03 08:13:52;;;;;;;23.98;5.10;;;10.00;99.90;;;;;;5041923;28;20607;-80
2022/05/03 08:16:20;;;;;;;20.02;4.32;;;10.10;99.90;;;;;;5040491;28;20442;-81
2022/05/03 08:18:47;;;;;;;39.17;6.90;;;10.10;99.90;;;;;;5010410;28;20077;-80
2022/05/03 08:21:12;;;;;;;23.25;4.25;;;10.20;99.90;;;;;;5025254;28;20489;-81
2022/05/03 08:23:39;;;;;;;21.98;4.88;;;10.10;99.90;;;;;;5041510;28;20053;-80
2022/05/03 08:26:05;;;;;;;27.15;5.28;;;10.40;99.90;;;;;;5041962;28;20053;-80
2022/05/03 08:28:31;;;;;;;21.25;4.38;;;10.20;99.90;;;;;;5010395;28;20064;-80
2022/05/03 08:30:57;;;;;;;26.48;4.43;;;10.10;99.90;;;;;;5009002;28;20062;-80
2022/05/03 08:33:23;;;;;;;23.13;4.32;;;10.20;99.90;;;;;;5041754;28;20057;-80
2022/05/03 08:35:49;;;;;;;21.88;4.40;;;10.20;99.90;;;;;;5041073;28;20077;-80
2022/05/03 08:43:45;;;;;;;18.42;3.97;;;10.30;99.90;;;;;;5040424;28;20409;-81
2022/05/03 08:46:12;;;;;;;16.98;3.28;;;10.30;99.90;;;;;;5008370;28;20454;-81
2022/05/03 08:48:41;;;;;;;20.15;3.80;;;10.30;99.90;;;;;;5041366;28;20486;-81
2022/05/03 08:51:11;;;;;;;22.52;4.03;;;10.60;99.90;;;;;;5040349;28;20054;-80
2022/05/03 08:53:37;;;;;;;20.55;3.78;;;10.40;99.90;;;;;;5041444;28;20085;-81
2022/05/03 08:56:03;;;;;;;16.80;3.30;;;10.50;99.90;;;;;;5008110;28;20054;-81
2022/05/03 08:58:30;;;;;;;16.25;3.50;;;10.50;99.90;;;;;;5041218;28;20458;-80
2022/05/03 09:00:55;;;;;;;17.52;3.40;;;10.70;99.90;;;;;;5040487;28;20056;-81
2022/05/03 09:03:21;;;;;;;19.77;3.50;;;10.90;99.90;;;;;;5042202;28;20909;-80
2022/05/03 09:05:48;;;;;;;18.45;4.20;;;10.80;99.90;;;;;;5006874;28;20412;-80
2022/05/03 09:08:21;;;;;;;16.02;3.30;;;10.80;99.90;;;;;;5042010;28;20067;-81
2022/05/03 09:10:47;;;;;;;;;;;10.90;99.90;;;;;;5039943;28;20061;-80
2022/05/03 09:13:18;;;;;;;22.33;3.60;;;11.00;99.90;;;;;;5008513;28;19932;-80
2022/05/03 09:15:47;;;;;;;16.13;3.70;;;11.00;99.90;;;;;;5039703;28;20486;-80
2022/05/03 09:18:24;;;;;;;20.08;3.65;;;11.00;99.90;;;;;;5040611;28;20565;-81
2022/05/03 09:23:46;;;;;;;16.10;2.97;;;11.20;99.90;;;;;;5009554;28;20472;-80
2022/05/03 09:26:14;;;;;;;19.98;3.30;;;11.30;99.90;;;;;;5040510;28;20057;-80
2022/05/03 09:28:45;;;;;;;18.42;3.38;;;11.50;99.90;;;;;;5040519;28;20042;-80
2022/05/03 09:31:11;;;;;;;21.27;3.28;;;11.60;99.90;;;;;;5008353;28;20096;-81
2022/05/03 09:33:37;;;;;;;18.48;3.13;;;11.60;99.90;;;;;;5006937;28;20046;-82
2022/05/03 09:36:11;;;;;;;14.95;2.80;;;11.70;99.90;;;;;;5040529;28;20453;-81
2022/05/03 09:38:47;;;;;;;16.38;3.13;;;11.80;99.90;;;;;;5040679;28;20045;-81
2022/05/03 09:41:14;;;;;;;15.10;3.00;;;11.90;99.90;;;;;;5039855;28;20053;-82
2022/05/03 09:44:04;;;;;;;11.55;2.38;;;11.90;99.90;;;;;;5040679;28;20050;-81
2022/05/03 09:46:30;;;;;;;11.30;2.50;;;11.90;99.90;;;;;;5039214;28;20053;-81
2022/05/03 09:48:56;;;;;;;12.77;2.65;;;12.10;99.90;;;;;;5040099;28;20049;-81
2022/05/03 09:51:24;;;;;;;8.13;2.55;;;12.10;99.90;;;;;;5039799;28;20064;-81
2022/05/03 09:53:57;;;;;;;12.63;3.15;;;12.10;99.90;;;;;;5008157;28;20053;-80
2022/05/03 09:56:27;;;;;;;12.82;2.60;;;12.40;99.90;;;;;;5040613;28;20046;-81
2022/05/03 09:58:59;;;;;;;16.83;2.65;;;12.20;99.90;;;;;;5008218;28;20045;-81
2022/05/03 10:01:25;;;;;;;15.25;3.08;;;12.30;99.90;;;;;;5039368;28;20473;-80
2022/05/03 10:03:51;;;;;;;12.15;2.40;;;12.30;99.90;;;;;;5007952;28;20449;-80
2022/05/03 10:06:20;;;;;;;11.50;2.08;;;12.40;99.90;;;;;;5024217;28;20064;-81
2022/05/03 10:08:48;;;;;;;13.48;2.97;;;12.80;99.90;;;;;;5023745;28;20057;-81
2022/05/03 10:11:16;;;;;;;8.70;2.10;;;12.40;99.90;;;;;;5025869;28;20045;-81
2022/05/03 10:13:42;;;;;;;11.52;2.20;;;12.50;99.90;;;;;;5025703;28;20042;-81
2022/05/03 10:21:44;;;;;;;10.20;2.67;;;12.60;99.90;;;;;;5025000;28;20132;-81
2022/05/03 10:24:11;;;;;;;15.77;2.22;;;12.70;99.90;;;;;;5014833;28;20053;-81
2022/05/03 10:26:52;;;;;;;14.38;2.10;;;12.90;99.90;;;;;;5025708;28;20659;-80
2022/05/03 10:29:19;;;;;;;12.85;2.08;;;12.90;99.90;;;;;;5027387;28;20084;-80
2022/05/03 10:32:05;;;;;;;13.30;2.35;;;12.80;99.90;;;;;;5024090;28;20060;-80
2022/05/03 10:34:40;;;;;;;18.10;2.78;;;12.70;99.90;;;;;;5023396;28;20144;-80
2022/05/03 10:37:07;;;;;;;11.82;2.17;;;12.80;99.90;;;;;;5024577;28;20045;-81
2022/05/03 10:39:33;;;;;;;12.00;2.10;;;12.80;99.90;;;;;;5024779;28;20076;-81
2022/05/03 10:42:02;;;;;;;11.98;2.10;;;12.80;99.90;;;;;;5008481;28;20081;-81
2022/05/03 10:44:43;;;;;;;13.68;2.35;;;12.80;99.90;;;;;;5038434;28;20490;-80
2022/05/03 10:47:10;;;;;;;15.60;2.60;;;12.90;99.90;;;;;;5038554;28;20057;-80
2022/05/03 10:50:15;;;;;;;11.52;2.15;;;12.90;99.90;;;;;;5039098;28;20607;-80
2022/05/03 10:53:05;;;;;;;8.23;2.20;;;12.90;99.90;;;;;;5039624;28;20065;-80
2022/05/03 10:55:37;;;;;;;12.25;1.90;;;13.20;99.90;;;;;;5040122;28;20140;-80
2022/05/03 10:58:20;;;;;;;14.63;1.92;;;13.40;99.90;;;;;;5038933;28;20062;-80
2022/05/03 11:01:07;;;;;;;6.32;1.42;;;13.30;99.90;;;;;;5038336;28;20742;-80
2022/05/03 11:03:38;;;;;;;8.63;1.85;;;13.20;99.90;;;;;;5009460;28;20053;-81
2022/05/03 11:06:18;;;;;;;12.40;2.35;;;13.20;99.90;;;;;;5009923;28;20508;-81
2022/05/03 11:11:37;;;;;;;6.80;1.90;;;13.50;99.90;;;;;;5042874;28;20135;-81
2022/05/03 11:14:04;;;;;;;7.22;1.75;;;13.40;99.90;;;;;;5025924;28;20543;-81
2022/05/03 11:16:34;;;;;;;8.25;1.90;;;13.10;99.90;;;;;;5009479;28;20034;-81
2022/05/03 11:19:09;;;;;;;6.88;1.65;;;13.10;99.90;;;;;;5041943;28;20095;-81
2022/05/03 11:21:35;;;;;;;8.13;1.67;;;13.00;99.90;;;;;;5043525;28;20129;-80
2022/05/03 11:24:01;;;;;;;7.72;1.77;;;13.20;99.90;;;;;;5011070;28;20128;-80
2022/05/03 11:26:26;;;;;;;11.90;1.85;;;13.30;99.90;;;;;;5026023;28;20405;-81
2022/05/03 11:28:56;;;;;;;10.40;2.35;;;13.50;99.90;;;;;;5042661;28;20054;-80
2022/05/03 11:31:23;;;;;;;14.65;1.80;;;13.60;99.90;;;;;;5041815;28;20177;-80
2022/05/03 11:33:51;;;;;;;6.35;1.92;;;13.60;99.90;;;;;;5011307;28;20064;-80
2022/05/03 11:36:18;;;;;;;13.68;2.20;;;13.80;99.90;;;;;;5043247;28;20085;-80
2022/05/03 11:38:46;;;;;;;9.57;2.20;;;13.80;99.90;;;;;;5042616;28;20057;-80
2022/05/03 11:41:12;;;;;;;10.32;1.98;;;13.70;99.90;;;;;;5042789;28;20056;-81
2022/05/03 11:43:38;;;;;;;13.32;1.60;;;13.70;99.90;;;;;;5043081;28;20133;-80
2022/05/03 11:46:03;;;;;;;11.43;1.90;;;13.70;99.90;;;;;;5007605;28;20052;-81
2022/05/03 11:48:30;;;;;;;11.10;2.20;;;13.70;99.90;;;;;;5043554;28;20053;-81
2022/05/03 11:56:26;;;;;;;8.77;1.70;;;13.80;99.90;;;;;;5010860;28;20501;-81
2022/05/03 11:58:54;;;;;;;11.30;2.28;;;13.40;99.90;;;;;;5043003;28;20056;-81
2022/05/03 12:01:21;;;;;;;10.40;2.08;;;13.20;99.90;;;;;;5041145;28;20050;-80
2022/05/03 12:03:51;;;;;;;12.68;2.47;;;12.90;99.90;;;;;;5042582;28;20149;-81
2022/05/03 12:06:17;;;;;;;14.15;2.38;;;13.10;99.90;;;;;;5042714;28;20374;-80
2022/05/03 12:08:45;;;;;;;15.70;1.95;;;13.50;99.90;;;;;;5042168;28;20046;-81
2022/05/03 12:11:21;;;;;;;9.38;2.00;;;13.50;99.90;;;;;;5025959;28;20050;-81
2022/05/03 12:13:46;;;;;;;15.88;2.10;;;13.30;99.90;;;;;;5008873;28;20070;-81
2022/05/03 12:16:15;;;;;;;10.35;2.33;;;13.20;99.90;;;;;;5009067;28;20073;-81
2022/05/03 12:18:46;;;;;;;12.65;2.15;;;13.30;99.90;;;;;;5042762;28;20050;-81
2022/05/03 12:21:19;;;;;;;9.43;2.22;;;13.00;99.90;;;;;;5010166;28;20103;-81
2022/05/03 12:23:46;;;;;;;;;;;13.10;99.90;;;;;;5042957;28;20405;-81
2022/05/03 12:26:12;;;;;;;9.77;1.85;;;13.00;99.90;;;;;;5025601;28;20393;-81
2022/05/03 12:28:40;;;;;;;8.95;1.95;;;12.90;99.90;;;;;;5041937;28;20050;-81
2022/05/03 12:31:08;;;;;;;14.13;1.83;;;12.80;99.90;;;;;;5009099;28;20046;-81
2022/05/03 12:33:41;;;;;;;8.18;1.92;;;13.10;99.90;;;;;;5009240;28;20438;-80
2022/05/03 12:36:08;;;;;;;5.75;1.80;;;12.80;99.90;;;;;;5009005;28;20409;-81
2022/05/03 12:38:47;;;;;;;14.00;2.45;;;12.80;99.90;;;;;;5042360;28;20060;-80
2022/05/03 12:41:23;;;;;;;13.55;3.15;;;12.70;99.90;;;;;;5008784;28;20052;-81
2022/05/03 12:44:02;;;;;;;11.30;2.03;;;13.00;99.90;;;;;;5040888;28;20046;-81
2022/05/03 12:46:29;;;;;;;10.90;2.08;;;12.80;99.90;;;;;;5041245;28;20048;-81
2022/05/03 12:48:55;;;;;;;8.38;2.03;;;12.60;99.90;;;;;;5041331;28;20472;-81
2022/05/03 12:51:21;;;;;;;9.65;1.90;;;12.80;99.90;;;;;;5041637;28;20058;-80
2022/05/03 12:53:48;;;;;;;8.65;1.77;;;13.00;99.90;;;;;;4991963;28;20396;-80
2022/05/03 12:58:58;;;;;;;18.35;2.33;;;13.60;99.90;;;;;;5009697;28;20133;-80
2022/05/03 13:01:24;;;;;;;8.57;2.17;;;13.50;99.90;;;;;;5041215;28;20132;-80
2022/05/03 13:03:50;;;;;;;6.88;1.92;;;13.60;99.90;;;;;;5040764;28;20034;-80
2022/05/03 13:06:17;;;;;;;10.13;2.40;;;13.90;99.90;;;;;;5041519;28;20054;-81
2022/05/03 13:08:43;;;;;;;14.48;1.70;;;14.00;99.90;;;;;;5041955;28;20046;-81
2022/05/03 13:11:10;;;;;;;14.55;2.97;;;14.20;99.90;;;;;;5023543;28;20120;-81
2022/05/03 13:13:37;;;;;;;7.57;1.92;;;14.20;99.90;;;;;;5041837;28;20466;-81
2022/05/03 13:16:03;;;;;;;9.30;1.83;;;14.00;99.90;;;;;;5040332;28;20129;-81
2022/05/03 13:18:28;;;;;;;12.63;2.05;;;13.70;99.90;;;;;;5024339;28;20129;-81
2022/05/03 13:20:54;;;;;;;11.38;2.10;;;13.50;99.90;;;;;;5009477;28;20116;-81
2022/05/03 13:23:20;;;;;;;15.70;2.10;;;13.30;99.90;;;;;;5041236;28;20057;-81
2022/05/03 13:25:46;;;;;;;16.48;2.45;;;13.50;99.90;;;;;;5040005;28;20037;-80